Flight Track Log - Related Links

Times and Time Zones

All times are in EDT time to prevent confusion due to time zone crossing. See the SWA3764 flight status page for this flight to view local times or setup timezone preferences in your user account.

Time Position Orientation Groundspeed Altitude Reporting Facility
EDT Latitude Longitude Course Direction KTS MPH feet Rate Location/Type
Wed 09:16:27 AM 36.1333 -86.6500 39° Northeast 157 181 1,100  Level Nashville TRACON
Wed 09:17:03 AM 36.1500 -86.6333 39° Northeast 172 198 2,400 2,176 Climbing Nashville TRACON
Wed 09:18:09 AM 36.1333 -86.5667 107° East 252 290 4,800 2,757 Climbing Nashville TRACON
Wed 09:20:08 AM 35.9919 -86.6294 200° South 300 345 10,900 3,050 Climbing Memphis Center
Wed 09:21:08 AM 35.8992 -86.6669 198° South 330 380 13,900 3,200 Climbing Memphis Center
Wed 09:22:08 AM 35.7981 -86.6969 194° South 367 422 17,300 3,200 Climbing Memphis Center
Wed 09:23:08 AM 35.6794 -86.7075 184° South 386 444 20,300 2,734 Climbing Memphis Center
Wed 09:24:46 AM 35.4969 -86.7247 184° South 413 475 24,500 2,392 Climbing Atlanta Center
Wed 09:25:46 AM 35.3819 -86.7364 185° South 415 478 26,600 2,000 Climbing Atlanta Center
Wed 09:26:46 AM 35.2586 -86.7475 184° South 428 493 28,500 1,900 Climbing Atlanta Center
Wed 09:27:46 AM 35.1311 -86.7611 185° South 450 518 30,400 3,750 Climbing Atlanta Center
Wed 09:28:46 AM 35.0078 -86.7725 184° South 456 525 36,000 1,800 Climbing Atlanta Center
Wed 09:29:46 AM 34.8803 -86.7833 184° South 456 525 34,000 -750 Descending Atlanta Center
Wed 09:30:46 AM 34.7569 -86.7944 184° South 461 531 34,500 500 Climbing Atlanta Center
Wed 09:31:46 AM 34.6314 -86.8056 184° South 461 531 35,000 750 Climbing Atlanta Center
Wed 09:32:46 AM 34.5081 -86.8192 185° South 461 531 36,000 900 Climbing Atlanta Center
Wed 09:33:46 AM 34.3783 -86.8300 184° South 461 531 36,800 1,000 Climbing Atlanta Center
Wed 09:34:46 AM 34.2486 -86.8408 184° South 467 537 38,000 600 Climbing Atlanta Center
Wed 09:35:46 AM 34.1356 -86.8547 186° South 462 532 38,000  Level Atlanta Center
Wed 09:36:46 AM 34.0081 -86.8656 184° South 462 532 38,000  Level Atlanta Center
Wed 09:37:46 AM 33.8806 -86.8789 185° South 462 532 38,000  Level Atlanta Center
Wed 09:38:46 AM 33.7572 -86.8897 184° South 462 532 38,000  Level Atlanta Center
Wed 09:39:46 AM 33.6319 -86.8856 178° South 457 526 38,000  Level Atlanta Center
Wed 09:40:46 AM 33.5100 -86.8342 161° South 457 526 38,000  Level Atlanta Center
Wed 09:41:46 AM 33.3881 -86.7831 161° South 463 533 38,000 -350 Level Atlanta Center
Wed 09:42:46 AM 33.2597 -86.7292 161° South 468 539 37,300 -850 Descending Atlanta Center
Wed 09:43:46 AM 33.1356 -86.6833 163° South 457 526 36,300 -1,000 Descending Atlanta Center
Wed 09:44:46 AM 33.0156 -86.6350 161° South 457 526 35,300 -700 Descending Atlanta Center
Wed 09:45:46 AM 32.8953 -86.5894 162° South 457 526 34,900 -650 Descending Atlanta Center
Wed 09:46:46 AM 32.7753 -86.5389 160° South 457 526 34,000 -450 Descending Atlanta Center
Wed 09:47:46 AM 32.6531 -86.4911 162° South 457 526 34,000  Level Atlanta Center
Wed 09:48:46 AM 32.5331 -86.4433 161° South 457 526 34,000 -500 Level Atlanta Center
Wed 09:49:46 AM 32.4214 -86.3961 160° South 465 535 33,000 -1,000 Descending Atlanta Center
Wed 09:50:46 AM 32.2989 -86.3511 163° South 473 544 32,000 -950 Descending Atlanta Center
Wed 09:51:46 AM 32.1744 -86.3136 166° South 469 540 31,100 -950 Descending Atlanta Center
Wed 09:52:46 AM 32.0478 -86.2783 167° South 469 540 30,100 -1,797 Descending Atlanta Center
Wed 09:55:03 AM 31.7642 -86.2058 168° South 448 516 25,200 -1,858 Descending Jacksonville Center
Wed 09:56:03 AM 31.6500 -86.1775 168° South 435 501 24,000 -800 Descending Jacksonville Center
Wed 09:57:03 AM 31.5403 -86.1492 168° South 421 484 23,600 -1,350 Descending Jacksonville Center
Wed 09:58:03 AM 31.4281 -86.1208 168° South 415 478 21,300 -2,200 Descending Jacksonville Center
Wed 09:59:03 AM 31.3225 -86.0931 167° South 408 470 19,200 -2,000 Descending Jacksonville Center
Wed 10:00:03 AM 31.2164 -86.0700 169° South 393 452 17,300 -2,000 Descending Jacksonville Center
Wed 10:01:03 AM 31.1192 -86.0422 166° South 379 436 15,200 -2,050 Descending Jacksonville Center
Wed 10:02:03 AM 31.0214 -86.0219 170° South 368 423 13,200 -1,950 Descending Jacksonville Center
Wed 10:03:03 AM 30.9281 -85.9947 166° South 362 417 11,300 -1,100 Descending Jacksonville Center
Wed 10:04:03 AM 30.8389 -85.9725 168° South 346 398 11,000 -550 Descending Jacksonville Center
Wed 10:05:03 AM 30.7603 -85.9408 161° South 331 381 10,200 -1,100 Descending Jacksonville Center
Wed 10:06:03 AM 30.6864 -85.8950 152° Southeast 306 352 8,800 -1,250 Descending Jacksonville Center
Wed 10:07:03 AM 30.6186 -85.8447 147° Southeast 295 339 7,700 -950 Descending Jacksonville Center
Wed 10:08:03 AM 30.5694 -85.7972 140° Southeast 288 331 6,900 1,650 Descending Jacksonville Center
Wed 10:09:03 AM 30.4869 -85.7514 154° Southeast 288 331 11,000 2,050 Climbing Jacksonville Center
Wed 10:10:03 AM 30.4150 -85.7083 153° Southeast 288 331 11,000  Level Jacksonville Center
Wed 10:11:03 AM 30.3428 -85.6631 152° Southeast 288 331 11,000  Level Jacksonville Center
Wed 10:12:03 AM 30.2997 -85.6375 153° Southeast 288 331 11,000  Level Jacksonville Center
Wed 10:14:00 AM 30.3500 -85.7833 278° West  Level FlightAware Approximate
Wed 10:21:00 AM 30.3582 -85.7956 278° West  Level Estimated
Wed 10:22:00 AM 30.3582 -85.7956 278° West  Level Estimated

Login

Don't have an account? Register now (free) for customized features, flight alerts, and more!